createdAt,value
2023-01-11T00:01:05.069Z,6.43
2023-01-11T00:03:32.753Z,6.57
2023-01-11T00:06:00.308Z,5.93
2023-01-11T00:08:28.189Z,6.53
2023-01-11T00:10:55.862Z,6.60
2023-01-11T00:13:23.305Z,7.13
2023-01-11T00:15:50.698Z,6.47
2023-01-11T00:18:18.179Z,6.37
2023-01-11T00:20:45.949Z,5.80
2023-01-11T00:23:13.563Z,6.07
2023-01-11T00:25:41.066Z,6.13
2023-01-11T00:28:08.366Z,5.77
2023-01-11T00:30:36.284Z,6.17
2023-01-11T00:33:03.567Z,4.93
2023-01-11T00:35:32.249Z,5.03
2023-01-11T00:37:59.524Z,4.93
2023-01-11T00:40:27.225Z,5.00
2023-01-11T00:43:24.008Z,4.43
2023-01-11T00:46:10.261Z,4.60
2023-01-11T00:48:37.520Z,4.40
2023-01-11T00:51:04.848Z,4.50
2023-01-11T00:53:32.219Z,4.20
2023-01-11T00:55:59.480Z,4.10
2023-01-11T00:58:26.827Z,4.00
2023-01-11T01:00:54.269Z,4.37
2023-01-11T01:03:21.615Z,3.70
2023-01-11T01:05:48.814Z,3.80
2023-01-11T01:08:16.571Z,4.10
2023-01-11T01:10:43.801Z,3.97
2023-01-11T01:13:30.192Z,3.57
2023-01-11T01:15:58.928Z,3.37
2023-01-11T01:18:26.270Z,3.80
2023-01-11T01:20:53.476Z,3.80
2023-01-11T01:23:20.798Z,3.30
2023-01-11T01:25:48.037Z,3.33
2023-01-11T01:28:15.223Z,3.43
2023-01-11T01:30:42.432Z,3.43
2023-01-11T01:33:09.643Z,3.50
2023-01-11T01:35:38.552Z,3.30
2023-01-11T01:38:05.857Z,3.50
2023-01-11T01:40:33.128Z,3.50
2023-01-11T01:43:00.339Z,3.23
2023-01-11T01:45:28.813Z,3.30
2023-01-11T01:47:56.331Z,3.80
2023-01-11T01:50:26.268Z,3.40
2023-01-11T01:52:56.481Z,3.63
2023-01-11T01:55:27.545Z,3.67
2023-01-11T01:57:55.816Z,3.70
2023-01-11T02:00:23.076Z,4.10
2023-01-11T02:02:50.640Z,3.80
2023-01-11T02:05:18.377Z,3.97
2023-01-11T02:07:46.130Z,4.47
2023-01-11T02:10:15.333Z,4.20
2023-01-11T02:12:48.629Z,4.30
2023-01-11T02:15:17.063Z,4.20
2023-01-11T02:17:44.403Z,4.07
2023-01-11T02:20:19.761Z,4.10
2023-01-11T02:23:05.546Z,4.10
2023-01-11T02:25:32.781Z,3.83
2023-01-11T02:28:12.180Z,3.93
2023-01-11T02:30:58.363Z,3.97
2023-01-11T02:33:28.345Z,4.07
2023-01-11T02:36:09.587Z,4.17
2023-01-11T02:38:46.061Z,3.80
2023-01-11T02:41:19.795Z,3.70
2023-01-11T02:44:05.606Z,3.50
2023-01-11T02:46:43.162Z,4.37
2023-01-11T02:49:24.688Z,4.53
2023-01-11T02:51:57.372Z,4.10
2023-01-11T02:54:24.837Z,3.80
2023-01-11T02:56:56.923Z,3.43
2023-01-11T02:59:25.359Z,4.20
2023-01-11T03:01:55.575Z,4.03
2023-01-11T03:04:23.041Z,3.53
2023-01-11T03:06:52.944Z,3.73
2023-01-11T03:09:20.332Z,3.50
2023-01-11T03:12:22.572Z,4.00
2023-01-11T03:14:50.176Z,3.87
2023-01-11T03:17:37.683Z,3.47
2023-01-11T03:20:21.871Z,3.73
2023-01-11T03:22:59.752Z,3.70
2023-01-11T03:25:41.272Z,3.77
2023-01-11T03:28:14.611Z,4.13
2023-01-11T03:30:58.259Z,3.43
2023-01-11T03:33:35.190Z,3.80
2023-01-11T03:36:24.243Z,3.57
2023-01-11T03:38:56.799Z,3.97
2023-01-11T03:41:29.852Z,3.37
2023-01-11T03:43:58.808Z,3.77
2023-01-11T03:46:35.377Z,2.83
2023-01-11T03:49:05.697Z,3.50
2023-01-11T03:51:35.992Z,3.37
2023-01-11T03:54:04.856Z,3.90
2023-01-11T03:56:45.188Z,3.40
2023-01-11T03:59:12.814Z,2.77
2023-01-11T04:01:40.110Z,3.60
2023-01-11T04:04:07.694Z,3.30
2023-01-11T04:06:36.603Z,3.30
2023-01-11T04:09:04.755Z,3.27
2023-01-11T04:11:32.060Z,3.20
2023-01-11T04:13:59.388Z,3.03
2023-01-11T04:16:26.617Z,3.77
2023-01-11T04:18:53.930Z,3.30
2023-01-11T04:21:21.159Z,3.00
2023-01-11T04:23:48.520Z,2.90
2023-01-11T04:26:17.524Z,3.20
2023-01-11T04:28:45.095Z,2.93
2023-01-11T04:31:12.528Z,3.10
2023-01-11T04:33:39.837Z,3.40
2023-01-11T04:36:07.912Z,3.53
2023-01-11T04:38:35.820Z,3.30
2023-01-11T04:41:26.015Z,3.27
2023-01-11T04:43:56.862Z,2.87
2023-01-11T04:46:24.846Z,3.40
2023-01-11T04:48:52.548Z,3.37
2023-01-11T04:51:20.262Z,2.80
2023-01-11T04:53:49.063Z,2.90
2023-01-11T04:56:17.165Z,2.93
2023-01-11T04:58:44.749Z,3.00
2023-01-11T05:01:12.902Z,3.00
2023-01-11T05:03:40.241Z,3.00
2023-01-11T05:06:07.778Z,2.87
2023-01-11T05:08:35.196Z,2.70
2023-01-11T05:11:06.845Z,3.20
2023-01-11T05:13:43.649Z,3.27
2023-01-11T05:16:13.766Z,3.30
2023-01-11T05:18:42.376Z,2.97
2023-01-11T05:21:10.404Z,2.70
2023-01-11T05:23:56.330Z,2.80
2023-01-11T05:26:25.261Z,2.90
2023-01-11T05:28:52.892Z,2.50
2023-01-11T05:31:20.295Z,2.80
2023-01-11T05:34:07.006Z,2.50
2023-01-11T05:36:34.824Z,3.03
2023-01-11T05:39:02.189Z,3.17
2023-01-11T05:41:29.508Z,2.67
2023-01-11T05:44:16.022Z,2.83
2023-01-11T05:46:44.071Z,2.40
2023-01-11T05:49:11.946Z,3.27
2023-01-11T05:51:39.538Z,2.60
2023-01-11T05:54:07.989Z,7.03
2023-01-11T05:56:35.450Z,2.90
2023-01-11T05:59:04.103Z,3.23
2023-01-11T06:01:31.747Z,2.70
2023-01-11T06:03:59.290Z,2.60
2023-01-11T06:06:26.933Z,2.77
2023-01-11T06:08:54.301Z,2.90
2023-01-11T06:11:22.001Z,2.37
2023-01-11T06:13:49.271Z,2.83
2023-01-11T06:16:18.089Z,3.17
2023-01-11T06:18:46.504Z,3.27
2023-01-11T06:21:14.079Z,3.10
2023-01-11T06:23:42.367Z,3.47
2023-01-11T06:26:11.477Z,2.80
2023-01-11T06:28:39.623Z,3.40
2023-01-11T06:31:08.976Z,2.70
2023-01-11T06:33:37.036Z,3.87
2023-01-11T06:36:08.646Z,3.03
2023-01-11T06:38:36.392Z,3.10
2023-01-11T06:41:04.612Z,3.20
2023-01-11T06:43:32.457Z,3.13
2023-01-11T06:46:00.188Z,3.00
2023-01-11T06:48:28.245Z,3.17
2023-01-11T06:50:56.519Z,2.93
2023-01-11T06:53:26.676Z,3.20
2023-01-11T06:55:56.737Z,3.07
2023-01-11T06:58:24.495Z,3.20
2023-01-11T07:00:52.856Z,3.10
2023-01-11T07:03:24.384Z,3.40
2023-01-11T07:05:52.330Z,3.37
2023-01-11T07:08:20.031Z,3.13
2023-01-11T07:10:47.560Z,3.50
2023-01-11T07:13:17.145Z,3.47
2023-01-11T07:15:50.334Z,3.10
2023-01-11T07:18:18.644Z,3.70
2023-01-11T07:20:45.955Z,3.63
2023-01-11T07:23:13.885Z,3.30
2023-01-11T07:25:41.330Z,3.20
2023-01-11T07:28:09.446Z,3.60
2023-01-11T07:30:55.403Z,3.13
2023-01-11T07:33:23.920Z,3.43
2023-01-11T07:35:51.158Z,2.77
2023-01-11T07:38:18.592Z,3.57
2023-01-11T07:40:45.800Z,3.33
2023-01-11T07:43:19.422Z,3.10
2023-01-11T07:45:49.321Z,3.17
2023-01-11T07:48:20.927Z,3.20
2023-01-11T07:50:48.973Z,2.90
2023-01-11T07:53:16.286Z,2.90
2023-01-11T07:56:02.520Z,3.33
2023-01-11T07:58:29.823Z,3.43
2023-01-11T08:01:00.170Z,3.00
2023-01-11T08:03:27.532Z,3.10
2023-01-11T08:05:54.969Z,2.77
2023-01-11T08:08:22.229Z,2.97
2023-01-11T08:11:08.920Z,2.50
2023-01-11T08:13:54.897Z,2.90
2023-01-11T08:16:22.296Z,3.00
2023-01-11T08:18:58.397Z,2.43
2023-01-11T08:21:25.987Z,2.90
2023-01-11T08:23:54.066Z,2.70
2023-01-11T08:26:21.384Z,2.80
2023-01-11T08:28:48.741Z,3.00
2023-01-11T08:31:16.216Z,2.80
2023-01-11T08:33:43.680Z,3.30
2023-01-11T08:36:12.193Z,2.63
2023-01-11T08:38:39.793Z,3.00
2023-01-11T08:41:14.837Z,2.90
2023-01-11T08:43:42.511Z,2.70
2023-01-11T08:46:10.714Z,3.40
2023-01-11T08:48:38.105Z,3.07
2023-01-11T08:51:05.552Z,3.10
2023-01-11T08:53:32.828Z,2.70
2023-01-11T08:56:00.192Z,3.10
2023-01-11T08:58:27.575Z,2.83
2023-01-11T09:00:57.848Z,3.00
2023-01-11T09:03:25.215Z,2.47
2023-01-11T09:05:53.925Z,3.40
2023-01-11T09:08:21.207Z,3.10
2023-01-11T09:10:48.409Z,3.37
2023-01-11T09:13:15.758Z,3.33
2023-01-11T09:15:43.116Z,3.30
2023-01-11T09:18:10.852Z,3.10
2023-01-11T09:20:38.117Z,3.20
2023-01-11T09:23:05.435Z,2.97
2023-01-11T09:25:33.311Z,2.90
2023-01-11T09:28:00.828Z,3.00
2023-01-11T09:30:28.434Z,2.97
2023-01-11T09:32:56.223Z,3.00
2023-01-11T09:35:23.921Z,2.97
2023-01-11T09:37:52.309Z,3.20
2023-01-11T09:40:24.311Z,3.17
2023-01-11T09:43:00.789Z,3.07
2023-01-11T09:45:31.103Z,3.30
2023-01-11T09:48:06.828Z,3.27
2023-01-11T09:50:41.231Z,3.27
2023-01-11T09:53:13.882Z,3.10
2023-01-11T09:55:46.849Z,3.50
2023-01-11T09:58:26.937Z,2.67
2023-01-11T10:01:01.121Z,2.67
2023-01-11T10:03:34.878Z,3.00
2023-01-11T10:06:18.389Z,2.70
2023-01-11T10:18:22.525Z,3.33
2023-01-11T10:18:39.451Z,3.23
2023-01-11T10:20:40.936Z,3.30
2023-01-11T10:23:14.948Z,3.20
2023-01-11T10:25:53.711Z,3.50
2023-01-11T10:28:50.974Z,3.70
2023-01-11T10:31:47.105Z,3.60
2023-01-11T10:34:45.428Z,3.20
2023-01-11T10:37:40.300Z,3.23
2023-01-11T10:40:25.252Z,2.97
2023-01-11T10:42:52.759Z,3.10
2023-01-11T10:45:25.933Z,3.00
2023-01-11T10:47:57.907Z,2.97
2023-01-11T10:50:28.688Z,2.40
2023-01-11T10:53:00.025Z,2.90
2023-01-11T10:55:46.648Z,2.80
2023-01-11T10:58:23.491Z,2.60
2023-01-11T11:01:16.708Z,2.80
2023-01-11T11:03:58.363Z,2.80
2023-01-11T11:06:35.051Z,2.97
2023-01-11T11:09:17.231Z,2.83
2023-01-11T11:11:54.138Z,2.77
2023-01-11T11:14:30.788Z,2.80
2023-01-11T11:17:01.105Z,2.50
2023-01-11T11:19:32.283Z,2.90
2023-01-11T11:22:00.717Z,3.23
2023-01-11T11:24:51.419Z,2.90
2023-01-11T11:27:41.411Z,3.07
2023-01-11T11:30:12.851Z,2.60
2023-01-11T11:32:45.541Z,3.10
2023-01-11T11:35:33.424Z,3.03
2023-01-11T11:38:01.308Z,3.00
2023-01-11T11:40:36.484Z,3.10
2023-01-11T11:43:18.701Z,3.20
2023-01-11T11:45:53.508Z,3.50
2023-01-11T11:48:21.588Z,3.13
2023-01-11T11:50:49.027Z,3.63
2023-01-11T11:53:28.171Z,3.77
2023-01-11T11:55:55.848Z,3.30
2023-01-11T11:58:24.833Z,3.23
2023-01-11T12:00:52.816Z,3.50
2023-01-11T12:03:20.124Z,3.30
2023-01-11T12:05:55.423Z,4.00
2023-01-11T12:08:25.044Z,3.60
2023-01-11T12:10:57.690Z,3.73
2023-01-11T12:13:30.363Z,4.00
2023-01-11T12:15:59.112Z,4.20
2023-01-11T12:18:33.518Z,4.07
2023-01-11T12:21:32.581Z,4.47
2023-01-11T12:24:10.648Z,3.80
2023-01-11T12:26:44.549Z,3.80
2023-01-11T12:29:23.042Z,4.00
2023-01-11T12:31:59.640Z,3.93
2023-01-11T12:34:48.063Z,3.90
2023-01-11T12:37:23.273Z,4.03
2023-01-11T12:39:56.609Z,3.97
2023-01-11T12:42:26.768Z,3.73
2023-01-11T12:45:12.723Z,4.37
2023-01-11T12:47:58.519Z,4.43
2023-01-11T12:50:27.332Z,4.03
2023-01-11T12:52:54.565Z,3.90
2023-01-11T12:55:51.964Z,4.30
2023-01-11T12:58:31.735Z,3.90
2023-01-11T13:00:59.228Z,4.20
2023-01-11T13:03:34.292Z,4.40
2023-01-11T13:06:20.287Z,3.73
2023-01-11T13:08:53.086Z,4.00
2023-01-11T13:11:35.594Z,4.33
2023-01-11T13:14:17.492Z,4.53
2023-01-11T13:16:54.118Z,3.60
2023-01-11T13:19:28.646Z,4.00
2023-01-11T13:21:56.989Z,4.83
2023-01-11T13:24:28.900Z,3.80
2023-01-11T13:27:00.086Z,3.40
2023-01-11T13:29:32.486Z,3.50
2023-01-11T13:32:01.634Z,3.63
2023-01-11T13:34:34.526Z,3.87
2023-01-11T13:37:20.830Z,3.67
2023-01-11T13:40:06.871Z,3.17
2023-01-11T13:42:43.497Z,3.93
2023-01-11T13:45:49.720Z,3.43
2023-01-11T13:48:23.235Z,3.60
2023-01-11T13:51:14.731Z,3.67
2023-01-11T13:53:52.406Z,2.80
2023-01-11T13:56:22.917Z,2.93
2023-01-11T13:58:50.188Z,2.70
2023-01-11T14:01:21.844Z,3.40
2023-01-11T14:03:57.627Z,2.87
2023-01-11T14:06:24.987Z,3.27
2023-01-11T14:09:07.061Z,3.07
2023-01-11T14:12:01.994Z,3.50
2023-01-11T14:14:37.598Z,3.57
2023-01-11T14:17:20.066Z,3.60
2023-01-11T14:19:53.495Z,3.40
2023-01-11T14:22:20.829Z,3.53
2023-01-11T14:24:53.635Z,3.53
2023-01-11T14:27:43.736Z,3.30
2023-01-11T14:30:13.846Z,3.80
2023-01-11T14:32:41.111Z,3.67
2023-01-11T14:35:11.522Z,3.77
2023-01-11T14:37:50.825Z,3.47
2023-01-11T14:40:18.296Z,3.43
2023-01-11T14:43:06.579Z,3.40
2023-01-11T14:45:33.825Z,3.60
2023-01-11T14:48:19.417Z,3.70
2023-01-11T14:50:46.691Z,3.67
2023-01-11T14:53:18.224Z,3.77
2023-01-11T14:55:46.487Z,3.50
2023-01-11T14:58:21.432Z,3.63
2023-01-11T15:00:48.744Z,4.00
2023-01-11T15:03:20.844Z,3.60
2023-01-11T15:05:48.171Z,3.60
2023-01-11T15:08:15.518Z,3.30
2023-01-11T15:10:51.993Z,3.70
2023-01-11T15:13:21.246Z,3.37
2023-01-11T15:16:07.931Z,3.67
2023-01-11T15:18:43.513Z,3.57
2023-01-11T15:21:13.525Z,3.80
2023-01-11T15:23:48.559Z,4.03
2023-01-11T15:26:17.197Z,4.40
2023-01-11T15:28:51.869Z,4.53
2023-01-11T15:31:33.998Z,4.27
2023-01-11T15:34:14.781Z,4.70
2023-01-11T15:36:51.914Z,4.17
2023-01-11T15:39:22.077Z,4.53
2023-01-11T15:42:04.271Z,4.00
2023-01-11T15:44:34.286Z,4.27
2023-01-11T15:47:17.047Z,4.23
2023-01-11T15:50:03.248Z,4.43
2023-01-11T15:52:50.485Z,4.33
2023-01-11T15:55:36.626Z,4.20
2023-01-11T15:58:03.881Z,4.80
2023-01-11T16:00:31.082Z,4.77
2023-01-11T16:03:11.623Z,5.23
2023-01-11T16:05:42.303Z,6.03
2023-01-11T16:08:20.664Z,8.80
2023-01-11T16:10:54.052Z,8.10
2023-01-11T16:13:21.305Z,8.20
2023-01-11T16:16:04.917Z,7.23
2023-01-11T16:18:53.974Z,9.77
2023-01-11T16:21:24.454Z,9.03
2023-01-11T16:23:51.858Z,10.20
2023-01-11T16:26:39.792Z,9.17
2023-01-11T16:29:25.274Z,6.97
2023-01-11T16:32:15.553Z,27.70
2023-01-11T16:34:43.937Z,37.20
2023-01-11T16:37:20.165Z,8.17
2023-01-11T16:39:49.383Z,6.17
2023-01-11T16:42:16.709Z,5.50
2023-01-11T16:44:50.601Z,5.53
2023-01-11T16:47:19.262Z,4.50
2023-01-11T16:49:49.188Z,5.40
2023-01-11T16:52:28.546Z,6.30
2023-01-11T16:54:56.711Z,6.80
2023-01-11T16:57:39.366Z,4.07
2023-01-11T17:00:32.302Z,3.87
2023-01-11T17:03:19.794Z,4.50
2023-01-11T17:06:05.950Z,2.97
2023-01-11T17:08:37.392Z,2.20
2023-01-11T17:11:06.917Z,2.30
2023-01-11T17:13:52.636Z,2.10
2023-01-11T17:16:21.437Z,3.27
2023-01-11T17:18:48.925Z,1.90
2023-01-11T17:21:20.323Z,1.50
2023-01-11T17:23:49.118Z,1.60
2023-01-11T17:26:21.812Z,1.60
2023-01-11T17:28:50.812Z,1.30
2023-01-11T17:31:22.549Z,1.60
2023-01-11T17:34:05.457Z,1.70
2023-01-11T17:36:51.897Z,1.57
2023-01-11T17:39:24.381Z,1.20
2023-01-11T17:42:10.527Z,4.00
2023-01-11T17:44:56.634Z,1.50
2023-01-11T17:47:25.583Z,1.53
2023-01-11T17:49:53.878Z,1.93
2023-01-11T17:52:22.536Z,1.87
2023-01-11T17:55:01.917Z,1.70
2023-01-11T17:57:29.308Z,2.07
2023-01-11T18:00:15.350Z,1.60
2023-01-11T18:02:42.849Z,1.57
2023-01-11T18:05:14.929Z,1.97
2023-01-11T18:07:43.879Z,1.60
2023-01-11T18:10:19.183Z,1.70
2023-01-11T18:12:47.398Z,1.90
2023-01-11T18:15:19.748Z,2.00
2023-01-11T18:17:47.141Z,1.90
2023-01-11T18:20:14.480Z,1.90
2023-01-11T18:22:43.413Z,1.83
2023-01-11T18:25:20.898Z,1.60
2023-01-11T18:27:48.887Z,2.17
2023-01-11T18:30:28.650Z,2.30
2023-01-11T18:32:56.033Z,1.80
2023-01-11T18:35:23.370Z,1.60
2023-01-11T18:37:50.903Z,2.00
2023-01-11T18:40:19.048Z,1.80
2023-01-11T18:42:47.862Z,2.03
2023-01-11T18:45:15.474Z,1.80
2023-01-11T18:47:42.884Z,1.77
2023-01-11T18:50:11.238Z,2.00
2023-01-11T18:52:38.714Z,1.83
2023-01-11T18:55:06.317Z,1.60
2023-01-11T18:57:33.623Z,1.70
2023-01-11T19:00:00.982Z,2.03
2023-01-11T19:02:29.338Z,1.93
2023-01-11T19:04:57.336Z,1.90
2023-01-11T19:07:25.620Z,2.10
2023-01-11T19:09:54.927Z,2.20
2023-01-11T19:12:22.433Z,2.43
2023-01-11T19:14:49.755Z,1.97
2023-01-11T19:17:17.223Z,2.33
2023-01-11T19:19:44.868Z,2.10
2023-01-11T19:22:12.628Z,2.47
2023-01-11T19:24:40.420Z,1.93
2023-01-11T19:27:07.962Z,2.20
2023-01-11T19:29:35.326Z,2.10
2023-01-11T19:32:02.689Z,2.20
2023-01-11T19:34:30.040Z,4.23
2023-01-11T19:36:57.307Z,3.20
2023-01-11T19:39:24.708Z,2.00
2023-01-11T19:41:54.949Z,1.60
2023-01-11T19:44:26.928Z,2.00
2023-01-11T19:47:09.562Z,1.97
2023-01-11T19:49:38.546Z,1.90
2023-01-11T19:52:12.161Z,2.10
2023-01-11T19:54:41.770Z,2.07
2023-01-11T19:57:14.132Z,2.20
2023-01-11T19:59:42.223Z,2.90
2023-01-11T20:02:11.713Z,3.07
2023-01-11T20:04:39.348Z,2.30
2023-01-11T20:07:07.298Z,2.80
2023-01-11T20:09:37.808Z,2.67
2023-01-11T20:12:12.019Z,2.87
2023-01-11T20:14:40.737Z,2.77
2023-01-11T20:17:08.734Z,3.10
2023-01-11T20:19:36.034Z,2.60
2023-01-11T20:22:03.599Z,2.93
2023-01-11T20:24:30.952Z,2.80
2023-01-11T20:26:59.070Z,3.10
2023-01-11T20:29:26.448Z,2.90
2023-01-11T20:31:53.818Z,3.00
2023-01-11T20:34:21.213Z,3.40
2023-01-11T20:36:49.063Z,3.23
2023-01-11T20:39:17.501Z,3.60
2023-01-11T20:41:48.781Z,2.93
2023-01-11T20:44:18.946Z,3.33
2023-01-11T20:46:47.979Z,4.23
2023-01-11T20:49:15.884Z,3.40
2023-01-11T20:51:43.627Z,3.10
2023-01-11T20:54:11.331Z,3.30
2023-01-11T20:56:38.983Z,3.27
2023-01-11T20:59:07.268Z,3.13
2023-01-11T21:01:34.927Z,13.30
2023-01-11T21:04:04.566Z,5.43
2023-01-11T21:06:32.989Z,3.47
2023-01-11T21:09:01.072Z,3.47
2023-01-11T21:11:29.210Z,3.07
2023-01-11T21:16:25.632Z,3.43
2023-01-11T21:18:57.529Z,3.43
2023-01-11T21:21:25.961Z,2.70
2023-01-11T21:23:56.989Z,3.13
2023-01-11T21:26:25.304Z,3.30
2023-01-11T21:29:11.866Z,3.00
2023-01-11T21:31:39.705Z,3.00
2023-01-11T21:34:07.144Z,2.97
2023-01-11T21:36:34.706Z,2.90
2023-01-11T21:39:02.690Z,2.73
2023-01-11T21:41:50.364Z,2.90
2023-01-11T21:44:18.032Z,3.03
2023-01-11T21:46:45.372Z,2.93
2023-01-11T21:49:12.836Z,2.97
2023-01-11T21:51:40.437Z,2.67
2023-01-11T21:54:08.952Z,2.73
2023-01-11T21:56:36.408Z,2.90
2023-01-11T21:59:04.078Z,3.23
2023-01-11T22:01:31.394Z,2.63
2023-01-11T22:03:58.932Z,3.40
2023-01-11T22:06:26.330Z,2.80
2023-01-11T22:08:53.730Z,2.93
2023-01-11T22:11:21.072Z,3.10
2023-01-11T22:13:48.391Z,3.10
2023-01-11T22:16:17.456Z,2.57
2023-01-11T22:18:45.766Z,2.70
2023-01-11T22:21:14.987Z,2.97
2023-01-11T22:23:42.594Z,2.37
2023-01-11T22:26:14.797Z,2.37
2023-01-11T22:29:01.096Z,2.37
2023-01-11T22:31:29.413Z,2.80
2023-01-11T22:33:57.389Z,2.97
2023-01-11T22:36:25.293Z,2.50
2023-01-11T22:38:52.743Z,2.77
2023-01-11T22:41:20.422Z,2.50
2023-01-11T22:43:48.140Z,2.43
2023-01-11T22:46:16.883Z,2.53
2023-01-11T22:48:44.210Z,2.80
2023-01-11T22:51:12.189Z,3.60
2023-01-11T22:53:43.329Z,3.10
2023-01-11T22:56:11.295Z,2.73
2023-01-11T22:58:38.750Z,3.50
2023-01-11T23:01:13.641Z,3.00
2023-01-11T23:03:41.932Z,2.93
2023-01-11T23:06:10.594Z,2.90
2023-01-11T23:08:41.811Z,2.77
2023-01-11T23:11:52.046Z,2.70
2023-01-11T23:14:20.151Z,2.60
2023-01-11T23:16:48.257Z,2.47
2023-01-11T23:19:17.392Z,2.70
2023-01-11T23:21:45.471Z,2.10
2023-01-11T23:24:13.740Z,2.47
2023-01-11T23:26:41.048Z,2.10
2023-01-11T23:29:08.675Z,2.20
2023-01-11T23:31:36.017Z,2.40
2023-01-11T23:34:22.470Z,2.33
2023-01-11T23:36:49.949Z,2.37
2023-01-11T23:39:18.848Z,2.00
2023-01-11T23:42:05.101Z,1.77
2023-01-11T23:44:32.512Z,2.00
2023-01-11T23:47:18.642Z,2.40
2023-01-11T23:49:46.063Z,1.73
2023-01-11T23:52:13.406Z,1.80
2023-01-11T23:54:41.297Z,2.27
2023-01-11T23:57:12.177Z,2.27
2023-01-11T23:59:39.577Z,2.30
